sensor_id;sensor_type;location;lat;lon;timestamp;pressure;altitude;pressure_sealevel;temperature;humidity
50682;BME280;36779;52.168;20.878;2023-05-20T00:00:45;101591.90;;;13.19;69.42
50682;BME280;36779;52.168;20.878;2023-05-20T00:03:19;101581.77;;;13.22;69.54
50682;BME280;36779;52.168;20.878;2023-05-20T00:05:51;101579.30;;;13.20;69.16
50682;BME280;36779;52.168;20.878;2023-05-20T00:08:32;101579.27;;;13.16;69.30
50682;BME280;36779;52.168;20.878;2023-05-20T00:11:02;101576.23;;;13.13;69.38
50682;BME280;36779;52.168;20.878;2023-05-20T00:13:32;101577.66;;;13.09;69.25
50682;BME280;36779;52.168;20.878;2023-05-20T00:16:03;101581.46;;;13.09;69.52
50682;BME280;36779;52.168;20.878;2023-05-20T00:18:40;101580.61;;;13.09;69.15
50682;BME280;36779;52.168;20.878;2023-05-20T00:21:09;101573.70;;;13.08;69.31
50682;BME280;36779;52.168;20.878;2023-05-20T00:23:39;101575.70;;;13.11;69.60
50682;BME280;36779;52.168;20.878;2023-05-20T00:26:08;101573.64;;;13.17;69.40
50682;BME280;36779;52.168;20.878;2023-05-20T00:28:38;101572.82;;;13.19;69.36
50682;BME280;36779;52.168;20.878;2023-05-20T00:31:07;101575.08;;;13.18;69.46
50682;BME280;36779;52.168;20.878;2023-05-20T00:33:36;101574.58;;;13.15;69.19
50682;BME280;36779;52.168;20.878;2023-05-20T00:36:06;101573.63;;;13.11;69.12
50682;BME280;36779;52.168;20.878;2023-05-20T00:38:36;101572.61;;;13.03;69.30
50682;BME280;36779;52.168;20.878;2023-05-20T00:41:08;101567.85;;;13.00;69.29
50682;BME280;36779;52.168;20.878;2023-05-20T00:43:38;101568.33;;;12.99;69.49
50682;BME280;36779;52.168;20.878;2023-05-20T00:46:09;101570.00;;;12.96;69.35
50682;BME280;36779;52.168;20.878;2023-05-20T00:48:42;101572.09;;;12.93;69.24
50682;BME280;36779;52.168;20.878;2023-05-20T00:51:14;101565.41;;;12.92;69.45
50682;BME280;36779;52.168;20.878;2023-05-20T00:53:47;101561.50;;;12.90;69.47
50682;BME280;36779;52.168;20.878;2023-05-20T00:56:20;101564.05;;;12.88;69.31
50682;BME280;36779;52.168;20.878;2023-05-20T00:58:52;101566.46;;;12.87;69.44
50682;BME280;36779;52.168;20.878;2023-05-20T01:01:25;101565.96;;;12.88;69.67
50682;BME280;36779;52.168;20.878;2023-05-20T01:03:55;101567.94;;;12.92;69.45
50682;BME280;36779;52.168;20.878;2023-05-20T01:06:29;101569.64;;;12.91;69.39
50682;BME280;36779;52.168;20.878;2023-05-20T01:08:58;101573.48;;;12.88;69.61
50682;BME280;36779;52.168;20.878;2023-05-20T01:11:34;101573.98;;;12.85;69.35
50682;BME280;36779;52.168;20.878;2023-05-20T01:14:11;101573.63;;;12.85;69.64
50682;BME280;36779;52.168;20.878;2023-05-20T01:16:42;101570.13;;;12.86;69.49
50682;BME280;36779;52.168;20.878;2023-05-20T01:19:20;101567.98;;;12.84;69.26
50682;BME280;36779;52.168;20.878;2023-05-20T01:21:51;101571.90;;;12.81;69.25
50682;BME280;36779;52.168;20.878;2023-05-20T01:24:21;101566.91;;;12.81;69.43
50682;BME280;36779;52.168;20.878;2023-05-20T01:26:53;101566.27;;;12.80;69.53
50682;BME280;36779;52.168;20.878;2023-05-20T01:29:28;101573.17;;;12.82;69.52
50682;BME280;36779;52.168;20.878;2023-05-20T01:32:01;101574.05;;;12.80;69.36
50682;BME280;36779;52.168;20.878;2023-05-20T01:34:35;101572.73;;;12.76;69.28
50682;BME280;36779;52.168;20.878;2023-05-20T01:37:06;101572.15;;;12.72;69.36
50682;BME280;36779;52.168;20.878;2023-05-20T01:39:39;101578.16;;;12.69;69.50
50682;BME280;36779;52.168;20.878;2023-05-20T01:42:15;101577.38;;;12.65;69.40
50682;BME280;36779;52.168;20.878;2023-05-20T01:44:45;101578.19;;;12.61;69.53
50682;BME280;36779;52.168;20.878;2023-05-20T01:47:14;101572.94;;;12.60;69.34
50682;BME280;36779;52.168;20.878;2023-05-20T01:49:43;101568.86;;;12.60;69.30
50682;BME280;36779;52.168;20.878;2023-05-20T01:52:15;101569.78;;;12.60;69.48
50682;BME280;36779;52.168;20.878;2023-05-20T01:54:45;101564.92;;;12.62;69.51
50682;BME280;36779;52.168;20.878;2023-05-20T01:57:21;101559.70;;;12.66;69.54
50682;BME280;36779;52.168;20.878;2023-05-20T01:59:51;101555.21;;;12.74;69.83
50682;BME280;36779;52.168;20.878;2023-05-20T02:02:21;101553.22;;;12.73;69.59
50682;BME280;36779;52.168;20.878;2023-05-20T02:04:52;101553.02;;;12.69;69.42
50682;BME280;36779;52.168;20.878;2023-05-20T02:07:32;101551.66;;;12.68;69.52
50682;BME280;36779;52.168;20.878;2023-05-20T02:10:02;101548.38;;;12.67;69.67
50682;BME280;36779;52.168;20.878;2023-05-20T02:12:32;101547.34;;;12.67;69.60
50682;BME280;36779;52.168;20.878;2023-05-20T02:15:01;101550.17;;;12.69;69.76
50682;BME280;36779;52.168;20.878;2023-05-20T02:17:31;101547.85;;;12.71;69.40
50682;BME280;36779;52.168;20.878;2023-05-20T02:20:00;101549.51;;;12.65;69.53
50682;BME280;36779;52.168;20.878;2023-05-20T02:22:35;101551.48;;;12.59;69.42
50682;BME280;36779;52.168;20.878;2023-05-20T02:25:06;101553.89;;;12.57;69.39
50682;BME280;36779;52.168;20.878;2023-05-20T02:27:37;101562.80;;;12.53;69.18
50682;BME280;36779;52.168;20.878;2023-05-20T02:30:11;101560.76;;;12.50;69.42
50682;BME280;36779;52.168;20.878;2023-05-20T02:32:47;101566.50;;;12.45;69.26
50682;BME280;36779;52.168;20.878;2023-05-20T02:35:17;101566.63;;;12.42;69.56
50682;BME280;36779;52.168;20.878;2023-05-20T02:37:46;101565.84;;;12.41;69.52
50682;BME280;36779;52.168;20.878;2023-05-20T02:40:19;101566.74;;;12.39;69.49
50682;BME280;36779;52.168;20.878;2023-05-20T02:42:48;101567.78;;;12.39;69.35
50682;BME280;36779;52.168;20.878;2023-05-20T02:45:24;101567.56;;;12.40;69.39
50682;BME280;36779;52.168;20.878;2023-05-20T02:48:00;101573.02;;;12.44;69.69
50682;BME280;36779;52.168;20.878;2023-05-20T02:50:40;101569.89;;;12.52;69.43
50682;BME280;36779;52.168;20.878;2023-05-20T02:53:09;101567.27;;;12.51;69.65
50682;BME280;36779;52.168;20.878;2023-05-20T02:55:40;101566.36;;;12.49;69.45
50682;BME280;36779;52.168;20.878;2023-05-20T02:58:09;101568.94;;;12.52;69.72
50682;BME280;36779;52.168;20.878;2023-05-20T03:00:44;101566.77;;;12.56;69.77
50682;BME280;36779;52.168;20.878;2023-05-20T03:03:15;101566.54;;;12.58;69.55
50682;BME280;36779;52.168;20.878;2023-05-20T03:05:44;101564.77;;;12.56;69.45
50682;BME280;36779;52.168;20.878;2023-05-20T03:08:14;101564.90;;;12.53;69.34
50682;BME280;36779;52.168;20.878;2023-05-20T03:10:45;101564.86;;;12.50;69.31
50682;BME280;36779;52.168;20.878;2023-05-20T03:13:17;101562.30;;;12.46;69.52
50682;BME280;36779;52.168;20.878;2023-05-20T03:15:46;101564.52;;;12.46;69.53
50682;BME280;36779;52.168;20.878;2023-05-20T03:18:16;101565.13;;;12.47;69.46
50682;BME280;36779;52.168;20.878;2023-05-20T03:20:49;101569.13;;;12.54;69.81
50682;BME280;36779;52.168;20.878;2023-05-20T03:23:19;101571.55;;;12.62;69.94
50682;BME280;36779;52.168;20.878;2023-05-20T03:25:52;101571.91;;;12.64;69.57
50682;BME280;36779;52.168;20.878;2023-05-20T03:28:21;101574.67;;;12.63;69.75
50682;BME280;36779;52.168;20.878;2023-05-20T03:30:50;101574.70;;;12.68;69.85
50682;BME280;36779;52.168;20.878;2023-05-20T03:33:21;101571.54;;;12.73;69.68
50682;BME280;36779;52.168;20.878;2023-05-20T03:35:56;101569.73;;;12.74;69.71
50682;BME280;36779;52.168;20.878;2023-05-20T03:38:27;101565.05;;;12.72;69.68
50682;BME280;36779;52.168;20.878;2023-05-20T03:41:02;101562.59;;;12.70;69.70
50682;BME280;36779;52.168;20.878;2023-05-20T03:43:34;101564.23;;;12.69;69.55
50682;BME280;36779;52.168;20.878;2023-05-20T03:49:37;101565.96;;;12.78;69.64
50682;BME280;36779;52.168;20.878;2023-05-20T03:52:10;101566.61;;;12.82;69.81
50682;BME280;36779;52.168;20.878;2023-05-20T03:54:39;101565.47;;;12.86;69.91
50682;BME280;36779;52.168;20.878;2023-05-20T03:57:08;101567.48;;;12.93;69.84
50682;BME280;36779;52.168;20.878;2023-05-20T03:59:38;101567.95;;;12.95;69.83
50682;BME280;36779;52.168;20.878;2023-05-20T04:02:18;101567.81;;;12.97;69.67
50682;BME280;36779;52.168;20.878;2023-05-20T04:04:55;101567.72;;;12.98;69.64
50682;BME280;36779;52.168;20.878;2023-05-20T04:07:25;101571.56;;;13.02;69.87
50682;BME280;36779;52.168;20.878;2023-05-20T04:09:55;101569.87;;;13.07;69.78
50682;BME280;36779;52.168;20.878;2023-05-20T04:12:28;101569.53;;;13.10;69.75
50682;BME280;36779;52.168;20.878;2023-05-20T04:14:58;101567.70;;;13.14;69.62
50682;BME280;36779;52.168;20.878;2023-05-20T04:17:51;101568.84;;;13.22;69.73
50682;BME280;36779;52.168;20.878;2023-05-20T04:20:20;101566.43;;;13.30;69.66
50682;BME280;36779;52.168;20.878;2023-05-20T04:22:49;101571.02;;;13.39;69.86
50682;BME280;36779;52.168;20.878;2023-05-20T04:25:19;101568.93;;;13.48;69.69
50682;BME280;36779;52.168;20.878;2023-05-20T04:27:50;101575.42;;;13.54;69.84
50682;BME280;36779;52.168;20.878;2023-05-20T04:30:22;101574.87;;;13.60;69.61
50682;BME280;36779;52.168;20.878;2023-05-20T04:32:52;101580.14;;;13.68;69.85
50682;BME280;36779;52.168;20.878;2023-05-20T04:35:32;101578.77;;;13.83;70.10
50682;BME280;36779;52.168;20.878;2023-05-20T04:38:21;101575.89;;;13.91;69.97
50682;BME280;36779;52.168;20.878;2023-05-20T04:41:02;101577.91;;;13.97;69.60
50682;BME280;36779;52.168;20.878;2023-05-20T04:43:31;101575.57;;;14.01;69.68
50682;BME280;36779;52.168;20.878;2023-05-20T04:46:02;101570.41;;;14.06;69.50
50682;BME280;36779;52.168;20.878;2023-05-20T04:48:41;101567.25;;;14.09;69.47
50682;BME280;36779;52.168;20.878;2023-05-20T04:51:10;101565.05;;;14.09;69.36
50682;BME280;36779;52.168;20.878;2023-05-20T04:53:39;101564.30;;;14.11;69.56
50682;BME280;36779;52.168;20.878;2023-05-20T04:56:08;101563.20;;;14.15;69.64
50682;BME280;36779;52.168;20.878;2023-05-20T04:58:39;101557.41;;;14.21;69.78
50682;BME280;36779;52.168;20.878;2023-05-20T05:01:11;101557.26;;;14.28;69.75
50682;BME280;36779;52.168;20.878;2023-05-20T05:04:03;101565.50;;;14.38;69.82
50682;BME280;36779;52.168;20.878;2023-05-20T05:06:32;101568.48;;;14.49;69.71
50682;BME280;36779;52.168;20.878;2023-05-20T05:09:01;101567.40;;;14.60;69.47
50682;BME280;36779;52.168;20.878;2023-05-20T05:11:31;101566.39;;;14.71;69.65
50682;BME280;36779;52.168;20.878;2023-05-20T05:14:04;101571.02;;;14.80;69.53
50682;BME280;36779;52.168;20.878;2023-05-20T05:16:36;101568.80;;;14.87;69.71
50682;BME280;36779;52.168;20.878;2023-05-20T05:19:05;101570.40;;;14.99;69.87
50682;BME280;36779;52.168;20.878;2023-05-20T05:21:35;101573.55;;;15.07;69.62
50682;BME280;36779;52.168;20.878;2023-05-20T05:24:06;101571.01;;;15.11;69.37
50682;BME280;36779;52.168;20.878;2023-05-20T05:26:52;101572.80;;;15.15;69.40
50682;BME280;36779;52.168;20.878;2023-05-20T05:29:26;101571.13;;;15.28;69.37
50682;BME280;36779;52.168;20.878;2023-05-20T05:31:55;101568.56;;;15.37;69.52
50682;BME280;36779;52.168;20.878;2023-05-20T05:34:27;101568.23;;;15.43;69.33
50682;BME280;36779;52.168;20.878;2023-05-20T05:37:00;101569.20;;;15.51;69.17
50682;BME280;36779;52.168;20.878;2023-05-20T05:39:35;101569.98;;;15.57;69.21
50682;BME280;36779;52.168;20.878;2023-05-20T05:42:10;101569.78;;;15.60;69.15
50682;BME280;36779;52.168;20.878;2023-05-20T05:44:42;101573.55;;;15.65;69.15
50682;BME280;36779;52.168;20.878;2023-05-20T05:47:18;101577.48;;;15.74;69.05
50682;BME280;36779;52.168;20.878;2023-05-20T05:49:51;101584.58;;;15.80;68.94
50682;BME280;36779;52.168;20.878;2023-05-20T05:52:20;101585.08;;;15.88;68.88
50682;BME280;36779;52.168;20.878;2023-05-20T05:54:50;101582.40;;;15.93;68.90
50682;BME280;36779;52.168;20.878;2023-05-20T05:57:20;101575.60;;;15.99;69.02
50682;BME280;36779;52.168;20.878;2023-05-20T05:59:49;101573.65;;;16.07;68.84
50682;BME280;36779;52.168;20.878;2023-05-20T06:02:18;101575.35;;;16.10;68.72
50682;BME280;36779;52.168;20.878;2023-05-20T06:04:50;101575.12;;;16.15;68.84
50682;BME280;36779;52.168;20.878;2023-05-20T06:07:23;101573.69;;;16.28;68.92
50682;BME280;36779;52.168;20.878;2023-05-20T06:09:54;101580.09;;;16.40;68.67
50682;BME280;36779;52.168;20.878;2023-05-20T06:12:25;101579.40;;;16.51;68.75
50682;BME280;36779;52.168;20.878;2023-05-20T06:14:54;101576.58;;;16.63;68.66
50682;BME280;36779;52.168;20.878;2023-05-20T06:17:29;101576.90;;;16.84;68.95
50682;BME280;36779;52.168;20.878;2023-05-20T06:19:58;101575.25;;;17.06;68.85
50682;BME280;36779;52.168;20.878;2023-05-20T06:22:30;101578.94;;;17.16;68.39
50682;BME280;36779;52.168;20.878;2023-05-20T06:25:08;101577.91;;;17.23;68.34
50682;BME280;36779;52.168;20.878;2023-05-20T06:27:47;101578.25;;;17.36;68.42
50682;BME280;36779;52.168;20.878;2023-05-20T06:30:22;101576.52;;;17.45;68.09
50682;BME280;36779;52.168;20.878;2023-05-20T06:32:54;101571.16;;;17.49;68.07
50682;BME280;36779;52.168;20.878;2023-05-20T06:35:25;101568.66;;;17.60;68.25
50682;BME280;36779;52.168;20.878;2023-05-20T06:37:56;101567.29;;;17.75;68.20
50682;BME280;36779;52.168;20.878;2023-05-20T06:40:45;101567.19;;;17.90;68.06
50682;BME280;36779;52.168;20.878;2023-05-20T06:43:17;101566.91;;;18.03;67.88
50682;BME280;36779;52.168;20.878;2023-05-20T06:46:15;101562.38;;;18.09;67.91
50682;BME280;36779;52.168;20.878;2023-05-20T06:49:04;101561.44;;;18.22;67.72
50682;BME280;36779;52.168;20.878;2023-05-20T06:51:37;101564.01;;;18.30;67.67
50682;BME280;36779;52.168;20.878;2023-05-20T06:54:11;101560.00;;;18.45;67.69
50682;BME280;36779;52.168;20.878;2023-05-20T06:56:43;101559.73;;;18.61;67.67
50682;BME280;36779;52.168;20.878;2023-05-20T06:59:17;101557.02;;;18.77;67.60
50682;BME280;36779;52.168;20.878;2023-05-20T07:01:53;101554.59;;;18.88;67.49
50682;BME280;36779;52.168;20.878;2023-05-20T07:04:23;101558.84;;;18.98;67.51
50682;BME280;36779;52.168;20.878;2023-05-20T07:06:54;101557.83;;;19.07;67.41
50682;BME280;36779;52.168;20.878;2023-05-20T07:09:23;101557.21;;;19.12;67.17
50682;BME280;36779;52.168;20.878;2023-05-20T07:11:54;101552.05;;;19.15;66.86
50682;BME280;36779;52.168;20.878;2023-05-20T07:14:23;101549.34;;;19.21;67.09
50682;BME280;36779;52.168;20.878;2023-05-20T07:16:53;101546.75;;;19.24;66.97
50682;BME280;36779;52.168;20.878;2023-05-20T07:19:22;101550.06;;;19.30;66.90
50682;BME280;36779;52.168;20.878;2023-05-20T07:21:54;101545.02;;;19.37;66.94
50682;BME280;36779;52.168;20.878;2023-05-20T07:24:40;101546.13;;;19.39;66.67
50682;BME280;36779;52.168;20.878;2023-05-20T07:27:12;101549.96;;;19.40;66.57
50682;BME280;36779;52.168;20.878;2023-05-20T07:29:44;101550.73;;;19.38;66.25
50682;BME280;36779;52.168;20.878;2023-05-20T07:32:15;101550.83;;;19.39;66.44
50682;BME280;36779;52.168;20.878;2023-05-20T07:34:46;101549.52;;;19.46;66.45
50682;BME280;36779;52.168;20.878;2023-05-20T07:37:18;101548.58;;;19.50;66.19
50682;BME280;36779;52.168;20.878;2023-05-20T07:39:47;101543.56;;;19.48;66.01
50682;BME280;36779;52.168;20.878;2023-05-20T07:42:18;101543.17;;;19.56;66.40
50682;BME280;36779;52.168;20.878;2023-05-20T07:44:50;101542.27;;;19.73;66.35
50682;BME280;36779;52.168;20.878;2023-05-20T07:47:19;101543.54;;;19.79;66.04
50682;BME280;36779;52.168;20.878;2023-05-20T07:49:48;101536.95;;;19.84;66.11
50682;BME280;36779;52.168;20.878;2023-05-20T07:52:17;101534.98;;;20.02;66.19
50682;BME280;36779;52.168;20.878;2023-05-20T07:54:48;101531.85;;;20.18;66.11
50682;BME280;36779;52.168;20.878;2023-05-20T07:57:17;101533.83;;;20.33;66.11
50682;BME280;36779;52.168;20.878;2023-05-20T07:59:46;101530.02;;;20.54;66.12
50682;BME280;36779;52.168;20.878;2023-05-20T08:02:21;101531.39;;;20.76;65.97
50682;BME280;36779;52.168;20.878;2023-05-20T08:04:51;101532.02;;;20.87;65.74
50682;BME280;36779;52.168;20.878;2023-05-20T08:07:21;101529.12;;;21.05;65.79
50682;BME280;36779;52.168;20.878;2023-05-20T08:09:53;101533.37;;;21.17;65.66
50682;BME280;36779;52.168;20.878;2023-05-20T08:12:22;101535.17;;;21.18;65.48
50682;BME280;36779;52.168;20.878;2023-05-20T08:14:56;101535.71;;;21.20;65.34
50682;BME280;36779;52.168;20.878;2023-05-20T08:17:25;101535.80;;;21.21;65.22
50682;BME280;36779;52.168;20.878;2023-05-20T08:19:54;101534.45;;;21.19;64.97
50682;BME280;36779;52.168;20.878;2023-05-20T08:22:23;101532.80;;;21.18;64.97
50682;BME280;36779;52.168;20.878;2023-05-20T08:24:52;101532.01;;;21.25;65.16
50682;BME280;36779;52.168;20.878;2023-05-20T08:27:21;101533.58;;;21.31;65.11
50682;BME280;36779;52.168;20.878;2023-05-20T08:29:50;101531.58;;;21.42;65.09
50682;BME280;36779;52.168;20.878;2023-05-20T08:32:19;101528.92;;;21.51;64.89
50682;BME280;36779;52.168;20.878;2023-05-20T08:34:48;101527.10;;;21.53;64.54
50682;BME280;36779;52.168;20.878;2023-05-20T08:37:17;101527.27;;;21.56;64.56
50682;BME280;36779;52.168;20.878;2023-05-20T08:39:48;101531.54;;;21.72;64.80
50682;BME280;36779;52.168;20.878;2023-05-20T08:42:21;101530.77;;;21.88;64.73
50682;BME280;36779;52.168;20.878;2023-05-20T08:44:57;101524.89;;;22.09;64.82
50682;BME280;36779;52.168;20.878;2023-05-20T08:47:27;101526.86;;;22.22;64.23
50682;BME280;36779;52.168;20.878;2023-05-20T08:49:56;101518.95;;;22.26;64.24
50682;BME280;36779;52.168;20.878;2023-05-20T08:52:26;101517.29;;;22.45;64.26
50682;BME280;36779;52.168;20.878;2023-05-20T08:54:57;101518.40;;;22.62;64.13
50682;BME280;36779;52.168;20.878;2023-05-20T08:57:27;101512.50;;;22.82;64.29
50682;BME280;36779;52.168;20.878;2023-05-20T08:59:59;101513.67;;;23.14;64.26
50682;BME280;36779;52.168;20.878;2023-05-20T09:02:28;101511.86;;;23.35;63.84
50682;BME280;36779;52.168;20.878;2023-05-20T09:04:57;101515.08;;;23.39;63.27
50682;BME280;36779;52.168;20.878;2023-05-20T09:07:27;101511.83;;;23.47;63.21
50682;BME280;36779;52.168;20.878;2023-05-20T09:09:56;101511.48;;;23.66;63.31
50682;BME280;36779;52.168;20.878;2023-05-20T09:12:25;101512.09;;;24.00;63.39
50682;BME280;36779;52.168;20.878;2023-05-20T09:14:54;101503.02;;;24.22;63.13
50682;BME280;36779;52.168;20.878;2023-05-20T09:17:23;101511.39;;;24.45;62.99
50682;BME280;36779;52.168;20.878;2023-05-20T09:19:53;101507.27;;;24.59;62.78
50682;BME280;36779;52.168;20.878;2023-05-20T09:22:23;101502.48;;;24.88;62.91
50682;BME280;36779;52.168;20.878;2023-05-20T09:24:53;101501.52;;;25.12;62.41
50682;BME280;36779;52.168;20.878;2023-05-20T09:27:22;101506.05;;;25.22;62.23
50682;BME280;36779;52.168;20.878;2023-05-20T09:29:52;101503.39;;;25.30;61.83
50682;BME280;36779;52.168;20.878;2023-05-20T09:32:21;101502.91;;;25.39;61.84
50682;BME280;36779;52.168;20.878;2023-05-20T09:34:53;101494.75;;;25.51;61.70
50682;BME280;36779;52.168;20.878;2023-05-20T09:37:24;101500.67;;;25.57;61.27
50682;BME280;36779;52.168;20.878;2023-05-20T09:39:59;101490.41;;;25.66;61.38
50682;BME280;36779;52.168;20.878;2023-05-20T09:42:34;101488.55;;;25.85;61.39
50682;BME280;36779;52.168;20.878;2023-05-20T09:45:07;101487.76;;;25.90;61.03
50682;BME280;36779;52.168;20.878;2023-05-20T09:47:38;101485.79;;;26.07;61.30
50682;BME280;36779;52.168;20.878;2023-05-20T09:50:10;101486.11;;;26.19;60.68
50682;BME280;36779;52.168;20.878;2023-05-20T09:52:39;101483.53;;;26.26;60.95
50682;BME280;36779;52.168;20.878;2023-05-20T09:55:10;101485.70;;;26.52;60.96
50682;BME280;36779;52.168;20.878;2023-05-20T09:57:39;101485.45;;;26.72;60.82
50682;BME280;36779;52.168;20.878;2023-05-20T10:00:10;101482.17;;;26.91;60.41
50682;BME280;36779;52.168;20.878;2023-05-20T10:02:50;101474.55;;;27.08;60.42
50682;BME280;36779;52.168;20.878;2023-05-20T10:05:22;101477.81;;;27.18;59.97
50682;BME280;36779;52.168;20.878;2023-05-20T10:08:11;101479.04;;;27.11;59.60
50682;BME280;36779;52.168;20.878;2023-05-20T10:10:51;101478.74;;;27.08;59.53
50682;BME280;36779;52.168;20.878;2023-05-20T10:13:36;101479.73;;;27.21;59.55
50682;BME280;36779;52.168;20.878;2023-05-20T10:16:19;101480.49;;;27.18;59.00
50682;BME280;36779;52.168;20.878;2023-05-20T10:18:57;101476.90;;;27.13;58.85
50682;BME280;36779;52.168;20.878;2023-05-20T10:21:28;101476.86;;;27.07;58.70
50682;BME280;36779;52.168;20.878;2023-05-20T10:24:06;101473.12;;;27.11;58.94
50682;BME280;36779;52.168;20.878;2023-05-20T10:26:36;101470.45;;;27.32;58.99
50682;BME280;36779;52.168;20.878;2023-05-20T10:29:16;101469.20;;;27.35;58.70
50682;BME280;36779;52.168;20.878;2023-05-20T10:31:54;101462.08;;;27.49;58.66
50682;BME280;36779;52.168;20.878;2023-05-20T10:34:23;101463.42;;;27.63;58.69
50682;BME280;36779;52.168;20.878;2023-05-20T10:36:59;101461.45;;;27.84;58.51
50682;BME280;36779;52.168;20.878;2023-05-20T10:39:29;101460.72;;;27.90;57.92
50682;BME280;36779;52.168;20.878;2023-05-20T10:42:08;101454.30;;;28.01;58.15
50682;BME280;36779;52.168;20.878;2023-05-20T10:44:44;101451.52;;;28.18;57.73
50682;BME280;36779;52.168;20.878;2023-05-20T10:47:14;101451.92;;;27.95;56.89
50682;BME280;36779;52.168;20.878;2023-05-20T10:49:46;101443.66;;;27.64;56.79
50682;BME280;36779;52.168;20.878;2023-05-20T10:52:18;101437.17;;;27.53;57.05
50682;BME280;36779;52.168;20.878;2023-05-20T10:54:53;101437.86;;;27.55;57.13
50682;BME280;36779;52.168;20.878;2023-05-20T10:57:24;101433.73;;;27.57;57.10
50682;BME280;36779;52.168;20.878;2023-05-20T10:59:54;101435.61;;;27.69;57.07
50682;BME280;36779;52.168;20.878;2023-05-20T11:02:22;101436.78;;;27.79;57.00
50682;BME280;36779;52.168;20.878;2023-05-20T11:04:56;101433.48;;;27.94;57.16
50682;BME280;36779;52.168;20.878;2023-05-20T11:07:26;101433.38;;;28.27;57.17
50682;BME280;36779;52.168;20.878;2023-05-20T11:09:56;101426.80;;;28.44;56.78
50682;BME280;36779;52.168;20.878;2023-05-20T11:12:26;101420.42;;;28.47;56.16
50682;BME280;36779;52.168;20.878;2023-05-20T11:14:55;101415.27;;;28.35;55.96
50682;BME280;36779;52.168;20.878;2023-05-20T11:17:24;101417.45;;;28.34;56.14
50682;BME280;36779;52.168;20.878;2023-05-20T11:19:53;101412.51;;;28.37;56.00
50682;BME280;36779;52.168;20.878;2023-05-20T11:22:22;101408.66;;;28.48;56.02
50682;BME280;36779;52.168;20.878;2023-05-20T11:24:51;101408.46;;;28.50;55.58
50682;BME280;36779;52.168;20.878;2023-05-20T11:27:19;101408.20;;;28.35;55.29
50682;BME280;36779;52.168;20.878;2023-05-20T11:29:53;101406.21;;;28.42;55.62
50682;BME280;36779;52.168;20.878;2023-05-20T11:32:22;101403.63;;;28.50;55.44
50682;BME280;36779;52.168;20.878;2023-05-20T11:34:51;101401.57;;;28.52;55.27
50682;BME280;36779;52.168;20.878;2023-05-20T11:37:20;101401.69;;;28.53;54.93
50682;BME280;36779;52.168;20.878;2023-05-20T11:40:04;101409.59;;;28.32;54.49
50682;BME280;36779;52.168;20.878;2023-05-20T11:42:36;101410.50;;;28.18;54.69
50682;BME280;36779;52.168;20.878;2023-05-20T11:45:06;101409.38;;;28.20;54.70
50682;BME280;36779;52.168;20.878;2023-05-20T11:47:58;101406.33;;;28.04;54.16
50682;BME280;36779;52.168;20.878;2023-05-20T11:50:37;101401.74;;;27.89;54.39
50682;BME280;36779;52.168;20.878;2023-05-20T11:53:13;101402.95;;;27.93;54.54
50682;BME280;36779;52.168;20.878;2023-05-20T11:55:46;101406.11;;;27.92;54.11
50682;BME280;36779;52.168;20.878;2023-05-20T11:58:17;101408.95;;;27.66;53.84
50682;BME280;36779;52.168;20.878;2023-05-20T12:00:46;101403.92;;;27.39;53.91
50682;BME280;36779;52.168;20.878;2023-05-20T12:03:24;101401.38;;;27.34;54.11
50682;BME280;36779;52.168;20.878;2023-05-20T12:05:54;101395.98;;;27.41;54.22
50682;BME280;36779;52.168;20.878;2023-05-20T12:08:24;101390.73;;;27.38;53.93
50682;BME280;36779;52.168;20.878;2023-05-20T12:10:53;101393.26;;;27.39;54.17
50682;BME280;36779;52.168;20.878;2023-05-20T12:13:22;101389.07;;;27.52;54.35
50682;BME280;36779;52.168;20.878;2023-05-20T12:15:51;101393.27;;;27.70;54.28
50682;BME280;36779;52.168;20.878;2023-05-20T12:18:20;101388.36;;;27.81;54.22
50682;BME280;36779;52.168;20.878;2023-05-20T12:20:49;101388.66;;;27.86;53.94
50682;BME280;36779;52.168;20.878;2023-05-20T12:23:18;101385.27;;;27.88;53.86
50682;BME280;36779;52.168;20.878;2023-05-20T12:25:48;101387.15;;;27.92;53.67
50682;BME280;36779;52.168;20.878;2023-05-20T12:28:17;101384.86;;;27.80;53.31
50682;BME280;36779;52.168;20.878;2023-05-20T12:30:46;101386.93;;;27.76;53.44
50682;BME280;36779;52.168;20.878;2023-05-20T12:33:16;101383.02;;;27.85;53.52
50682;BME280;36779;52.168;20.878;2023-05-20T12:35:45;101388.63;;;27.87;53.28
50682;BME280;36779;52.168;20.878;2023-05-20T12:38:15;101386.37;;;27.86;53.24
50682;BME280;36779;52.168;20.878;2023-05-20T12:40:44;101385.66;;;27.84;53.17
50682;BME280;36779;52.168;20.878;2023-05-20T12:43:13;101384.44;;;27.81;52.92
50682;BME280;36779;52.168;20.878;2023-05-20T12:45:42;101378.68;;;27.78;53.03
50682;BME280;36779;52.168;20.878;2023-05-20T12:48:12;101381.77;;;27.79;52.87
50682;BME280;36779;52.168;20.878;2023-05-20T12:50:42;101375.13;;;27.76;52.77
50682;BME280;36779;52.168;20.878;2023-05-20T12:53:11;101371.36;;;27.70;52.64
50682;BME280;36779;52.168;20.878;2023-05-20T12:55:41;101367.22;;;27.60;52.42
50682;BME280;36779;52.168;20.878;2023-05-20T12:58:10;101364.79;;;27.53;52.46
50682;BME280;36779;52.168;20.878;2023-05-20T13:00:39;101360.91;;;27.44;52.34
50682;BME280;36779;52.168;20.878;2023-05-20T13:03:08;101353.16;;;27.35;52.36
50682;BME280;36779;52.168;20.878;2023-05-20T13:05:38;101353.88;;;27.42;52.61
50682;BME280;36779;52.168;20.878;2023-05-20T13:08:10;101343.67;;;27.52;52.74